sensor_id;sensor_type;location;lat;lon;timestamp;P1;P2;P0
56360;PMS7003;42611;51.132;13.588;2022-11-20T00:03:01;52.8;41.9;
56360;PMS7003;42611;51.132;13.588;2022-11-20T00:08:01;55.2;43.6;
56360;PMS7003;42611;51.132;13.588;2022-11-20T00:13:02;59.0;45.6;
56360;PMS7003;42611;51.132;13.588;2022-11-20T00:18:01;67.2;53.3;
56360;PMS7003;42611;51.132;13.588;2022-11-20T00:23:01;68.4;54.4;
56360;PMS7003;42611;51.132;13.588;2022-11-20T00:28:01;66.7;52.8;
56360;PMS7003;42611;51.132;13.588;2022-11-20T00:33:02;65.8;53.3;
56360;PMS7003;42611;51.132;13.588;2022-11-20T00:38:01;64.4;53.2;
56360;PMS7003;42611;51.132;13.588;2022-11-20T00:43:01;62.1;50.9;
56360;PMS7003;42611;51.132;13.588;2022-11-20T00:48:01;63.6;50.8;
56360;PMS7003;42611;51.132;13.588;2022-11-20T00:53:01;61.8;50.0;
56360;PMS7003;42611;51.132;13.588;2022-11-20T00:58:08;58.2;47.4;
56360;PMS7003;42611;51.132;13.588;2022-11-20T01:03:02;59.4;46.8;
56360;PMS7003;42611;51.132;13.588;2022-11-20T01:08:01;59.8;47.3;
56360;PMS7003;42611;51.132;13.588;2022-11-20T01:13:01;61.0;48.8;
56360;PMS7003;42611;51.132;13.588;2022-11-20T01:18:01;62.0;49.6;
56360;PMS7003;42611;51.132;13.588;2022-11-20T01:23:02;64.4;50.4;
56360;PMS7003;42611;51.132;13.588;2022-11-20T01:28:02;63.3;50.7;
56360;PMS7003;42611;51.132;13.588;2022-11-20T01:38:01;60.6;47.4;
56360;PMS7003;42611;51.132;13.588;2022-11-20T01:43:13;59.8;46.5;
56360;PMS7003;42611;51.132;13.588;2022-11-20T01:48:02;52.8;41.6;
56360;PMS7003;42611;51.132;13.588;2022-11-20T01:53:02;49.8;40.0;
56360;PMS7003;42611;51.132;13.588;2022-11-20T01:58:01;46.7;39.0;
56360;PMS7003;42611;51.132;13.588;2022-11-20T02:03:03;44.2;37.6;
56360;PMS7003;42611;51.132;13.588;2022-11-20T02:08:02;42.8;37.2;
56360;PMS7003;42611;51.132;13.588;2022-11-20T02:13:02;47.8;41.4;
56360;PMS7003;42611;51.132;13.588;2022-11-20T02:18:01;47.1;39.9;
56360;PMS7003;42611;51.132;13.588;2022-11-20T02:23:08;48.3;41.2;
56360;PMS7003;42611;51.132;13.588;2022-11-20T02:28:02;48.6;41.4;
56360;PMS7003;42611;51.132;13.588;2022-11-20T02:33:01;42.4;35.9;
56360;PMS7003;42611;51.132;13.588;2022-11-20T02:38:02;39.9;34.4;
56360;PMS7003;42611;51.132;13.588;2022-11-20T02:43:01;39.5;34.7;
56360;PMS7003;42611;51.132;13.588;2022-11-20T02:48:02;35.1;30.7;
56360;PMS7003;42611;51.132;13.588;2022-11-20T02:53:02;33.2;29.6;
56360;PMS7003;42611;51.132;13.588;2022-11-20T02:58:01;37.1;33.4;
56360;PMS7003;42611;51.132;13.588;2022-11-20T03:03:01;39.7;33.3;
56360;PMS7003;42611;51.132;13.588;2022-11-20T03:08:02;36.9;31.2;
56360;PMS7003;42611;51.132;13.588;2022-11-20T03:13:01;37.5;32.2;
56360;PMS7003;42611;51.132;13.588;2022-11-20T03:18:01;36.7;31.4;
56360;PMS7003;42611;51.132;13.588;2022-11-20T03:23:01;34.7;30.0;
56360;PMS7003;42611;51.132;13.588;2022-11-20T03:28:02;31.1;28.1;
56360;PMS7003;42611;51.132;13.588;2022-11-20T03:33:01;32.4;29.5;
56360;PMS7003;42611;51.132;13.588;2022-11-20T03:38:01;33.0;30.0;
56360;PMS7003;42611;51.132;13.588;2022-11-20T03:43:01;34.9;32.2;
56360;PMS7003;42611;51.132;13.588;2022-11-20T03:48:01;39.1;35.2;
56360;PMS7003;42611;51.132;13.588;2022-11-20T03:53:01;38.6;35.6;
56360;PMS7003;42611;51.132;13.588;2022-11-20T03:58:01;40.6;36.2;
56360;PMS7003;42611;51.132;13.588;2022-11-20T04:03:02;40.8;35.6;
56360;PMS7003;42611;51.132;13.588;2022-11-20T04:08:01;51.1;40.8;
56360;PMS7003;42611;51.132;13.588;2022-11-20T04:13:01;51.0;41.0;
56360;PMS7003;42611;51.132;13.588;2022-11-20T04:18:02;55.1;44.2;
56360;PMS7003;42611;51.132;13.588;2022-11-20T04:23:01;56.2;45.4;
56360;PMS7003;42611;51.132;13.588;2022-11-20T04:28:01;54.2;44.4;
56360;PMS7003;42611;51.132;13.588;2022-11-20T04:33:02;44.0;37.8;
56360;PMS7003;42611;51.132;13.588;2022-11-20T04:38:01;42.8;36.5;
56360;PMS7003;42611;51.132;13.588;2022-11-20T04:43:01;38.5;33.0;
56360;PMS7003;42611;51.132;13.588;2022-11-20T04:48:01;36.5;31.4;
56360;PMS7003;42611;51.132;13.588;2022-11-20T04:53:01;39.9;33.0;
56360;PMS7003;42611;51.132;13.588;2022-11-20T04:58:01;39.4;33.6;
56360;PMS7003;42611;51.132;13.588;2022-11-20T05:03:02;37.9;32.5;
56360;PMS7003;42611;51.132;13.588;2022-11-20T05:08:02;41.8;34.8;
56360;PMS7003;42611;51.132;13.588;2022-11-20T05:13:02;36.9;30.8;
56360;PMS7003;42611;51.132;13.588;2022-11-20T05:18:01;38.1;33.0;
56360;PMS7003;42611;51.132;13.588;2022-11-20T05:23:02;41.2;35.0;
56360;PMS7003;42611;51.132;13.588;2022-11-20T05:28:01;44.5;36.8;
56360;PMS7003;42611;51.132;13.588;2022-11-20T05:33:01;46.0;37.8;
56360;PMS7003;42611;51.132;13.588;2022-11-20T05:38:02;53.1;44.2;
56360;PMS7003;42611;51.132;13.588;2022-11-20T05:43:01;54.2;44.1;
56360;PMS7003;42611;51.132;13.588;2022-11-20T05:48:01;53.5;43.2;
56360;PMS7003;42611;51.132;13.588;2022-11-20T05:53:01;52.1;42.7;
56360;PMS7003;42611;51.132;13.588;2022-11-20T05:58:01;50.8;42.3;
56360;PMS7003;42611;51.132;13.588;2022-11-20T06:08:01;49.2;40.2;
56360;PMS7003;42611;51.132;13.588;2022-11-20T06:13:02;49.5;40.8;
56360;PMS7003;42611;51.132;13.588;2022-11-20T06:18:01;48.3;39.8;
56360;PMS7003;42611;51.132;13.588;2022-11-20T06:23:01;47.3;38.7;
56360;PMS7003;42611;51.132;13.588;2022-11-20T06:28:01;45.2;38.4;
56360;PMS7003;42611;51.132;13.588;2022-11-20T06:33:01;43.2;36.8;
56360;PMS7003;42611;51.132;13.588;2022-11-20T06:38:01;41.2;35.2;
56360;PMS7003;42611;51.132;13.588;2022-11-20T06:43:01;41.0;35.6;
56360;PMS7003;42611;51.132;13.588;2022-11-20T06:48:02;37.6;33.2;
56360;PMS7003;42611;51.132;13.588;2022-11-20T06:53:01;37.9;33.3;
56360;PMS7003;42611;51.132;13.588;2022-11-20T06:58:02;37.8;34.0;
56360;PMS7003;42611;51.132;13.588;2022-11-20T07:03:04;37.6;33.4;
56360;PMS7003;42611;51.132;13.588;2022-11-20T07:08:03;38.6;34.3;
56360;PMS7003;42611;51.132;13.588;2022-11-20T07:13:02;40.4;36.4;
56360;PMS7003;42611;51.132;13.588;2022-11-20T07:18:02;42.0;36.9;
56360;PMS7003;42611;51.132;13.588;2022-11-20T07:23:01;44.6;38.2;
56360;PMS7003;42611;51.132;13.588;2022-11-20T07:28:02;46.0;39.6;
56360;PMS7003;42611;51.132;13.588;2022-11-20T07:33:01;45.8;39.4;
56360;PMS7003;42611;51.132;13.588;2022-11-20T07:38:01;47.2;39.9;
56360;PMS7003;42611;51.132;13.588;2022-11-20T07:43:01;47.4;40.8;
56360;PMS7003;42611;51.132;13.588;2022-11-20T07:48:01;46.3;40.5;
56360;PMS7003;42611;51.132;13.588;2022-11-20T07:53:02;43.5;38.6;
56360;PMS7003;42611;51.132;13.588;2022-11-20T07:58:01;46.4;39.6;
56360;PMS7003;42611;51.132;13.588;2022-11-20T08:03:04;45.2;39.3;
56360;PMS7003;42611;51.132;13.588;2022-11-20T08:08:01;43.8;38.0;
56360;PMS7003;42611;51.132;13.588;2022-11-20T08:13:01;44.0;38.2;
56360;PMS7003;42611;51.132;13.588;2022-11-20T08:18:32;51.9;43.4;
56360;PMS7003;42611;51.132;13.588;2022-11-20T08:23:02;56.4;46.9;
56360;PMS7003;42611;51.132;13.588;2022-11-20T08:28:22;61.3;50.2;
56360;PMS7003;42611;51.132;13.588;2022-11-20T08:33:02;65.0;51.7;
56360;PMS7003;42611;51.132;13.588;2022-11-20T08:38:01;59.6;46.9;
56360;PMS7003;42611;51.132;13.588;2022-11-20T08:43:01;54.0;43.5;
56360;PMS7003;42611;51.132;13.588;2022-11-20T08:48:02;49.2;39.6;
56360;PMS7003;42611;51.132;13.588;2022-11-20T08:53:04;47.9;37.3;
56360;PMS7003;42611;51.132;13.588;2022-11-20T08:58:03;43.1;34.5;
56360;PMS7003;42611;51.132;13.588;2022-11-20T09:03:01;47.5;38.4;
56360;PMS7003;42611;51.132;13.588;2022-11-20T09:08:01;48.8;39.6;
56360;PMS7003;42611;51.132;13.588;2022-11-20T09:18:02;46.0;39.4;
56360;PMS7003;42611;51.132;13.588;2022-11-20T09:23:01;46.4;40.6;
56360;PMS7003;42611;51.132;13.588;2022-11-20T09:28:02;48.0;40.8;
56360;PMS7003;42611;51.132;13.588;2022-11-20T09:33:03;49.3;40.5;
56360;PMS7003;42611;51.132;13.588;2022-11-20T09:38:06;47.4;39.3;
56360;PMS7003;42611;51.132;13.588;2022-11-20T09:43:03;46.9;39.1;
56360;PMS7003;42611;51.132;13.588;2022-11-20T09:48:07;48.8;40.0;
56360;PMS7003;42611;51.132;13.588;2022-11-20T09:53:12;47.6;39.3;
56360;PMS7003;42611;51.132;13.588;2022-11-20T09:58:01;45.5;38.4;
56360;PMS7003;42611;51.132;13.588;2022-11-20T10:03:11;47.3;40.0;
56360;PMS7003;42611;51.132;13.588;2022-11-20T10:08:13;49.7;41.0;
56360;PMS7003;42611;51.132;13.588;2022-11-20T10:13:17;51.4;41.5;
56360;PMS7003;42611;51.132;13.588;2022-11-20T10:18:54;52.8;42.4;
56360;PMS7003;42611;51.132;13.588;2022-11-20T10:23:36;54.7;43.6;
56360;PMS7003;42611;51.132;13.588;2022-11-20T10:28:23;51.8;42.5;
56360;PMS7003;42611;51.132;13.588;2022-11-20T10:33:04;48.0;40.0;
56360;PMS7003;42611;51.132;13.588;2022-11-20T10:38:03;46.7;39.5;
56360;PMS7003;42611;51.132;13.588;2022-11-20T10:43:08;46.3;39.5;
56360;PMS7003;42611;51.132;13.588;2022-11-20T10:48:22;45.4;39.2;
56360;PMS7003;42611;51.132;13.588;2022-11-20T10:58:10;48.9;40.7;
56360;PMS7003;42611;51.132;13.588;2022-11-20T11:03:01;47.6;39.7;
56360;PMS7003;42611;51.132;13.588;2022-11-20T11:08:01;47.0;39.0;
56360;PMS7003;42611;51.132;13.588;2022-11-20T11:13:02;46.6;38.2;
56360;PMS7003;42611;51.132;13.588;2022-11-20T11:18:01;41.6;35.3;
56360;PMS7003;42611;51.132;13.588;2022-11-20T11:23:02;39.8;33.2;
56360;PMS7003;42611;51.132;13.588;2022-11-20T11:28:19;36.4;30.0;
56360;PMS7003;42611;51.132;13.588;2022-11-20T11:33:04;31.6;25.9;
56360;PMS7003;42611;51.132;13.588;2022-11-20T11:38:04;25.4;21.7;
56360;PMS7003;42611;51.132;13.588;2022-11-20T11:43:07;24.0;20.1;
56360;PMS7003;42611;51.132;13.588;2022-11-20T11:48:02;22.7;19.4;
56360;PMS7003;42611;51.132;13.588;2022-11-20T11:53:09;21.5;19.6;
56360;PMS7003;42611;51.132;13.588;2022-11-20T12:03:09;22.4;21.1;
56360;PMS7003;42611;51.132;13.588;2022-11-20T12:08:04;22.3;20.6;
56360;PMS7003;42611;51.132;13.588;2022-11-20T12:13:02;22.1;20.0;
56360;PMS7003;42611;51.132;13.588;2022-11-20T12:18:01;22.9;19.6;
56360;PMS7003;42611;51.132;13.588;2022-11-20T12:23:04;23.3;18.9;
56360;PMS7003;42611;51.132;13.588;2022-11-20T12:29:15;24.4;19.2;
56360;PMS7003;42611;51.132;13.588;2022-11-20T12:33:06;25.7;20.1;
56360;PMS7003;42611;51.132;13.588;2022-11-20T12:43:06;29.9;25.3;
56360;PMS7003;42611;51.132;13.588;2022-11-20T12:48:06;31.2;27.0;
56360;PMS7003;42611;51.132;13.588;2022-11-20T12:53:05;30.3;26.3;
56360;PMS7003;42611;51.132;13.588;2022-11-20T12:58:08;30.0;26.6;
56360;PMS7003;42611;51.132;13.588;2022-11-20T13:03:13;28.0;24.4;
56360;PMS7003;42611;51.132;13.588;2022-11-20T13:08:01;26.8;22.2;
56360;PMS7003;42611;51.132;13.588;2022-11-20T13:13:05;25.8;21.3;
56360;PMS7003;42611;51.132;13.588;2022-11-20T13:18:02;26.7;22.4;
56360;PMS7003;42611;51.132;13.588;2022-11-20T13:23:01;26.3;21.6;
56360;PMS7003;42611;51.132;13.588;2022-11-20T13:28:27;25.5;21.2;
56360;PMS7003;42611;51.132;13.588;2022-11-20T13:33:04;25.4;20.9;
56360;PMS7003;42611;51.132;13.588;2022-11-20T13:38:06;24.5;21.0;
56360;PMS7003;42611;51.132;13.588;2022-11-20T13:48:02;22.1;19.8;
56360;PMS7003;42611;51.132;13.588;2022-11-20T13:53:05;22.6;20.0;
56360;PMS7003;42611;51.132;13.588;2022-11-20T13:58:04;21.1;19.6;
56360;PMS7003;42611;51.132;13.588;2022-11-20T14:03:06;20.3;18.6;
56360;PMS7003;42611;51.132;13.588;2022-11-20T14:08:03;20.2;18.1;
56360;PMS7003;42611;51.132;13.588;2022-11-20T14:13:18;19.5;16.3;
56360;PMS7003;42611;51.132;13.588;2022-11-20T14:18:11;18.9;15.7;
56360;PMS7003;42611;51.132;13.588;2022-11-20T14:23:02;18.3;15.3;
56360;PMS7003;42611;51.132;13.588;2022-11-20T14:28:01;19.7;15.9;
56360;PMS7003;42611;51.132;13.588;2022-11-20T14:33:02;21.0;16.5;
56360;PMS7003;42611;51.132;13.588;2022-11-20T14:38:02;22.4;18.8;
56360;PMS7003;42611;51.132;13.588;2022-11-20T14:43:04;22.7;19.7;
56360;PMS7003;42611;51.132;13.588;2022-11-20T14:48:02;23.8;20.2;
56360;PMS7003;42611;51.132;13.588;2022-11-20T14:53:02;22.1;18.8;
56360;PMS7003;42611;51.132;13.588;2022-11-20T14:58:05;21.6;19.1;
56360;PMS7003;42611;51.132;13.588;2022-11-20T15:03:01;20.7;18.6;
56360;PMS7003;42611;51.132;13.588;2022-11-20T15:08:06;20.5;18.1;
56360;PMS7003;42611;51.132;13.588;2022-11-20T15:13:03;21.2;19.2;
56360;PMS7003;42611;51.132;13.588;2022-11-20T15:18:02;22.3;20.3;
56360;PMS7003;42611;51.132;13.588;2022-11-20T15:23:01;21.0;19.4;
56360;PMS7003;42611;51.132;13.588;2022-11-20T15:28:01;24.1;21.5;
56360;PMS7003;42611;51.132;13.588;2022-11-20T15:33:01;27.2;23.9;
56360;PMS7003;42611;51.132;13.588;2022-11-20T15:38:02;30.5;26.2;
56360;PMS7003;42611;51.132;13.588;2022-11-20T15:43:02;32.9;29.0;
56360;PMS7003;42611;51.132;13.588;2022-11-20T15:48:01;36.7;31.8;
56360;PMS7003;42611;51.132;13.588;2022-11-20T15:53:01;33.7;29.0;
56360;PMS7003;42611;51.132;13.588;2022-11-20T15:58:02;31.8;27.7;
56360;PMS7003;42611;51.132;13.588;2022-11-20T16:03:01;28.6;25.4;
56360;PMS7003;42611;51.132;13.588;2022-11-20T16:08:01;30.5;26.3;
56360;PMS7003;42611;51.132;13.588;2022-11-20T16:13:02;29.3;25.5;
56360;PMS7003;42611;51.132;13.588;2022-11-20T16:18:01;32.8;28.2;
56360;PMS7003;42611;51.132;13.588;2022-11-20T16:23:02;35.8;30.5;
56360;PMS7003;42611;51.132;13.588;2022-11-20T16:28:03;39.1;33.0;
56360;PMS7003;42611;51.132;13.588;2022-11-20T16:33:02;36.3;30.9;
56360;PMS7003;42611;51.132;13.588;2022-11-20T16:38:01;36.5;31.0;
56360;PMS7003;42611;51.132;13.588;2022-11-20T16:43:09;36.7;31.8;
56360;PMS7003;42611;51.132;13.588;2022-11-20T16:48:01;35.4;31.0;
56360;PMS7003;42611;51.132;13.588;2022-11-20T16:53:01;34.1;29.7;
56360;PMS7003;42611;51.132;13.588;2022-11-20T16:58:01;36.1;31.1;
56360;PMS7003;42611;51.132;13.588;2022-11-20T17:03:02;37.8;32.7;
56360;PMS7003;42611;51.132;13.588;2022-11-20T17:08:01;37.4;32.8;
56360;PMS7003;42611;51.132;13.588;2022-11-20T17:13:02;37.2;33.1;
56360;PMS7003;42611;51.132;13.588;2022-11-20T17:18:02;38.7;35.1;
56360;PMS7003;42611;51.132;13.588;2022-11-20T17:23:01;38.6;35.0;
56360;PMS7003;42611;51.132;13.588;2022-11-20T17:28:01;37.9;35.1;
56360;PMS7003;42611;51.132;13.588;2022-11-20T17:33:01;39.8;36.6;
56360;PMS7003;42611;51.132;13.588;2022-11-20T17:38:02;42.1;37.5;
56360;PMS7003;42611;51.132;13.588;2022-11-20T17:43:01;42.3;37.0;
56360;PMS7003;42611;51.132;13.588;2022-11-20T17:48:03;42.4;37.3;
56360;PMS7003;42611;51.132;13.588;2022-11-20T17:53:01;45.3;38.1;
56360;PMS7003;42611;51.132;13.588;2022-11-20T17:58:01;44.2;37.0;
56360;PMS7003;42611;51.132;13.588;2022-11-20T18:03:01;44.0;37.2;
56360;PMS7003;42611;51.132;13.588;2022-11-20T18:08:02;44.9;37.7;
56360;PMS7003;42611;51.132;13.588;2022-11-20T18:13:01;45.5;39.0;
56360;PMS7003;42611;51.132;13.588;2022-11-20T18:18:01;43.2;37.6;
56360;PMS7003;42611;51.132;13.588;2022-11-20T18:23:02;43.7;37.6;
56360;PMS7003;42611;51.132;13.588;2022-11-20T18:28:01;43.5;37.3;
56360;PMS7003;42611;51.132;13.588;2022-11-20T18:33:04;38.9;33.9;
56360;PMS7003;42611;51.132;13.588;2022-11-20T18:38:01;39.4;32.5;
56360;PMS7003;42611;51.132;13.588;2022-11-20T18:43:01;39.0;32.7;
56360;PMS7003;42611;51.132;13.588;2022-11-20T18:48:01;37.8;32.0;
56360;PMS7003;42611;51.132;13.588;2022-11-20T18:53:01;36.0;30.7;
56360;PMS7003;42611;51.132;13.588;2022-11-20T18:58:01;39.6;33.9;
56360;PMS7003;42611;51.132;13.588;2022-11-20T19:03:02;40.5;35.4;
56360;PMS7003;42611;51.132;13.588;2022-11-20T19:08:02;41.0;35.6;
56360;PMS7003;42611;51.132;13.588;2022-11-20T19:13:02;39.5;35.0;
56360;PMS7003;42611;51.132;13.588;2022-11-20T19:18:01;38.4;33.0;
56360;PMS7003;42611;51.132;13.588;2022-11-20T19:23:01;38.3;32.1;
56360;PMS7003;42611;51.132;13.588;2022-11-20T19:28:01;35.2;29.5;
56360;PMS7003;42611;51.132;13.588;2022-11-20T19:33:01;35.8;30.4;
56360;PMS7003;42611;51.132;13.588;2022-11-20T19:38:06;37.0;30.8;
56360;PMS7003;42611;51.132;13.588;2022-11-20T19:43:01;40.2;34.8;
56360;PMS7003;42611;51.132;13.588;2022-11-20T19:48:09;43.2;36.7;
56360;PMS7003;42611;51.132;13.588;2022-11-20T19:53:03;44.0;38.0;
56360;PMS7003;42611;51.132;13.588;2022-11-20T19:58:01;43.5;37.5;
56360;PMS7003;42611;51.132;13.588;2022-11-20T20:03:01;41.0;35.2;
56360;PMS7003;42611;51.132;13.588;2022-11-20T20:08:02;38.8;33.1;
56360;PMS7003;42611;51.132;13.588;2022-11-20T20:13:02;33.1;30.3;
56360;PMS7003;42611;51.132;13.588;2022-11-20T20:18:01;33.8;30.4;
56360;PMS7003;42611;51.132;13.588;2022-11-20T20:23:01;34.8;31.1;
56360;PMS7003;42611;51.132;13.588;2022-11-20T20:28:02;39.8;34.7;
56360;PMS7003;42611;51.132;13.588;2022-11-20T20:33:02;43.0;36.6;
56360;PMS7003;42611;51.132;13.588;2022-11-20T20:38:02;47.4;39.4;
56360;PMS7003;42611;51.132;13.588;2022-11-20T20:43:02;49.6;41.3;
56360;PMS7003;42611;51.132;13.588;2022-11-20T20:48:01;53.6;43.3;
56360;PMS7003;42611;51.132;13.588;2022-11-20T20:53:01;56.0;45.3;
56360;PMS7003;42611;51.132;13.588;2022-11-20T20:58:02;59.1;47.2;
56360;PMS7003;42611;51.132;13.588;2022-11-20T21:03:01;61.1;48.4;
56360;PMS7003;42611;51.132;13.588;2022-11-20T21:08:02;62.7;48.9;
56360;PMS7003;42611;51.132;13.588;2022-11-20T21:13:01;57.7;46.2;
56360;PMS7003;42611;51.132;13.588;2022-11-20T21:18:02;57.2;45.4;
56360;PMS7003;42611;51.132;13.588;2022-11-20T21:23:06;55.3;44.5;
56360;PMS7003;42611;51.132;13.588;2022-11-20T21:28:01;53.0;43.4;
56360;PMS7003;42611;51.132;13.588;2022-11-20T21:33:01;51.3;42.1;
56360;PMS7003;42611;51.132;13.588;2022-11-20T21:38:01;54.8;44.0;
56360;PMS7003;42611;51.132;13.588;2022-11-20T21:43:01;53.6;43.7;
56360;PMS7003;42611;51.132;13.588;2022-11-20T21:48:01;51.8;42.6;
56360;PMS7003;42611;51.132;13.588;2022-11-20T21:53:01;51.3;41.8;
56360;PMS7003;42611;51.132;13.588;2022-11-20T21:58:02;49.1;38.8;
56360;PMS7003;42611;51.132;13.588;2022-11-20T22:03:02;48.0;38.3;
56360;PMS7003;42611;51.132;13.588;2022-11-20T22:08:01;49.0;39.1;
56360;PMS7003;42611;51.132;13.588;2022-11-20T22:13:02;47.4;39.0;
56360;PMS7003;42611;51.132;13.588;2022-11-20T22:18:01;48.9;40.0;
56360;PMS7003;42611;51.132;13.588;2022-11-20T22:23:03;50.1;43.0;
56360;PMS7003;42611;51.132;13.588;2022-11-20T22:28:01;44.7;38.6;
56360;PMS7003;42611;51.132;13.588;2022-11-20T22:33:02;42.8;37.3;
56360;PMS7003;42611;51.132;13.588;2022-11-20T22:38:01;44.8;37.9;
56360;PMS7003;42611;51.132;13.588;2022-11-20T22:43:01;42.8;36.3;
56360;PMS7003;42611;51.132;13.588;2022-11-20T22:48:01;43.1;36.5;
56360;PMS7003;42611;51.132;13.588;2022-11-20T22:53:01;48.4;40.6;
56360;PMS7003;42611;51.132;13.588;2022-11-20T22:58:01;50.0;40.8;
56360;PMS7003;42611;51.132;13.588;2022-11-20T23:03:02;47.3;39.0;
56360;PMS7003;42611;51.132;13.588;2022-11-20T23:08:02;47.9;39.6;
56360;PMS7003;42611;51.132;13.588;2022-11-20T23:13:01;49.4;40.6;
56360;PMS7003;42611;51.132;13.588;2022-11-20T23:18:01;50.1;41.0;
56360;PMS7003;42611;51.132;13.588;2022-11-20T23:23:02;48.3;39.9;
56360;PMS7003;42611;51.132;13.588;2022-11-20T23:28:01;51.2;42.1;
56360;PMS7003;42611;51.132;13.588;2022-11-20T23:33:01;53.4;43.4;
56360;PMS7003;42611;51.132;13.588;2022-11-20T23:38:01;54.1;43.4;
56360;PMS7003;42611;51.132;13.588;2022-11-20T23:43:02;55.5;43.8;
56360;PMS7003;42611;51.132;13.588;2022-11-20T23:48:01;58.6;45.6;
56360;PMS7003;42611;51.132;13.588;2022-11-20T23:53:02;61.7;46.3;
56360;PMS7003;42611;51.132;13.588;2022-11-20T23:58:02;62.1;46.1;
